Time;durP1;ratioP1;P1;durP2;ratioP2;P2;SDS_P1;SDS_P2;PMS_P1;PMS_P2;Temp;Humidity;BMP_temperature;BMP_pressure;BME280_temperature;BME280_humidity;BME280_pressure;Samples;Min_cycle;Max_cycle;Signal;HPM_P1;HPM_P2
2021/08/14 00:00:06;;;;;;;27.35;12.45;;;;;;;16.59;73.12;100227.69;1726741;81;21552;-70
2021/08/14 00:02:33;;;;;;;23.38;12.58;;;;;;;16.55;73.20;100225.34;1729903;81;21019;-70
2021/08/14 00:05:03;;;;;;;24.63;13.28;;;;;;;16.51;73.26;100232.77;1717857;81;21490;-70
2021/08/14 00:07:31;;;;;;;25.68;12.98;;;;;;;16.49;73.28;100225.34;1722551;83;21036;-70
2021/08/14 00:09:58;;;;;;;24.90;14.55;;;;;;;16.49;73.28;100223.95;1727854;81;20995;-70
2021/08/14 00:12:24;;;;;;;22.70;12.43;;;;;;;16.51;73.18;100230.78;1694096;81;21091;-71
2021/08/14 00:14:53;;;;;;;25.68;13.70;;;;;;;16.52;73.01;100228.82;1724681;81;21071;-70
2021/08/14 00:17:21;;;;;;;24.63;11.35;;;;;;;16.51;72.94;100229.39;1723006;83;21591;-71
2021/08/14 00:19:50;;;;;;;18.00;10.75;;;;;;;16.52;72.79;100231.61;1724269;81;21051;-70
2021/08/14 00:22:18;;;;;;;26.93;13.22;;;;;;;16.52;72.65;100238.56;1692638;83;21015;-71
2021/08/14 00:24:45;;;;;;;22.50;11.33;;;;;;;16.49;72.90;100235.90;1722425;83;21097;-70
2021/08/14 00:27:11;;;;;;;26.00;11.57;;;;;;;16.45;73.07;100236.34;1692016;83;21046;-70
2021/08/14 00:29:42;;;;;;;33.30;13.30;;;;;;;16.48;72.99;100234.85;1720002;81;21086;-70
2021/08/14 00:32:10;;;;;;;31.25;13.28;;;;;;;16.51;72.69;100239.12;1692737;83;21059;-71
2021/08/14 00:34:40;;;;;;;29.42;12.47;;;;;;;16.54;72.52;100238.47;1717362;81;21028;-71
2021/08/14 00:37:06;;;;;;;26.15;12.93;;;;;;;16.56;72.43;100239.51;1727183;82;21769;-71
2021/08/14 00:39:35;;;;;;;30.97;12.95;;;;;;;16.58;72.32;100244.73;1735230;81;20990;-70
2021/08/14 00:42:07;;;;;;;28.80;13.28;;;;;;;16.58;72.16;100242.73;1736975;81;21110;-70
2021/08/14 00:44:34;;;;;;;22.37;10.82;;;;;;;16.59;72.25;100252.73;1733358;82;20999;-70
2021/08/14 00:47:04;;;;;;;19.70;11.88;;;;;;;16.51;72.27;100253.03;1733400;82;21137;-71
2021/08/14 00:49:31;;;;;;;18.65;10.35;;;;;;;16.47;72.52;100247.94;1734174;81;21162;-71
2021/08/14 00:51:58;;;;;;;20.20;10.00;;;;;;;16.46;72.59;100249.11;1713458;82;21007;-71
2021/08/14 00:54:26;;;;;;;17.25;9.25;;;;;;;16.45;72.67;100257.20;1736843;81;21054;-71
2021/08/14 00:56:56;;;;;;;26.65;10.43;;;;;;;16.43;72.77;100253.94;1709278;83;21082;-70
2021/08/14 00:59:22;;;;;;;17.85;11.00;;;;;;;16.38;72.85;100255.54;1701384;83;21074;-71
2021/08/14 01:01:49;;;;;;;21.62;10.85;;;;;;;16.37;72.61;100260.31;1707755;82;21129;-71
2021/08/14 01:04:21;;;;;;;19.48;9.88;;;;;;;16.37;72.35;100263.09;1711191;82;21066;-71
2021/08/14 01:06:48;;;;;;;19.23;9.48;;;;;;;16.37;72.17;100262.27;1733351;81;20995;-71
2021/08/14 01:09:14;;;;;;;18.48;8.95;;;;;;;16.35;72.33;100261.79;1678799;84;21611;-70
2021/08/14 01:11:40;;;;;;;23.52;9.48;;;;;;;16.28;72.86;100263.73;1737430;81;21007;-70
2021/08/14 01:14:09;;;;;;;21.80;9.60;;;;;;;16.21;73.08;100263.46;1697471;84;21112;-71
2021/08/14 01:16:42;;;;;;;;;;;;;;;16.19;73.05;100258.24;1697472;84;21081;-70
2021/08/14 01:19:10;;;;;;;20.72;9.78;;;;;;;16.21;72.82;100254.55;1713464;81;20138;-71
2021/08/14 01:21:47;;;;;;;22.17;9.38;;;;;;;16.22;72.66;100255.38;1713938;82;20988;-70
2021/08/14 01:24:14;;;;;;;14.83;8.40;;;;;;;16.22;72.45;100258.98;1691350;83;21519;-70
2021/08/14 01:26:42;;;;;;;14.40;8.03;;;;;;;16.22;72.37;100257.59;1711917;83;22142;-70
2021/08/14 01:29:11;;;;;;;18.50;7.85;;;;;;;16.20;72.64;100260.45;1716126;82;21035;-70
2021/08/14 01:31:41;;;;;;;14.75;9.13;;;;;;;16.19;72.58;100258.24;1698234;83;21546;-70
2021/08/14 01:34:11;;;;;;;19.70;9.20;;;;;;;16.20;72.31;100260.45;1685294;83;21025;-70
2021/08/14 01:36:38;;;;;;;15.88;9.63;;;;;;;16.20;72.03;100261.84;1671989;84;21017;-70
2021/08/14 01:39:06;;;;;;;23.92;8.55;;;;;;;16.19;71.74;100258.24;1665677;86;21072;-70
2021/08/14 01:41:34;;;;;;;21.42;10.13;;;;;;;16.17;71.37;100260.58;1666482;84;21056;-71
2021/08/14 01:44:07;;;;;;;18.27;9.85;;;;;;;16.13;71.12;100259.61;1634799;87;21082;-70
2021/08/14 01:46:41;;;;;;;21.85;10.70;;;;;;;16.10;71.16;100260.30;1665044;84;21024;-71
2021/08/14 01:49:09;;;;;;;24.23;9.98;;;;;;;16.09;71.18;100267.02;1665613;85;21646;-71
2021/08/14 01:51:38;;;;;;;26.50;10.60;;;;;;;16.05;71.09;100263.51;1647503;86;21165;-70
2021/08/14 01:54:06;;;;;;;21.02;10.40;;;;;;;16.04;71.10;100259.11;1653149;86;21553;-71
2021/08/14 01:56:33;;;;;;;23.12;10.65;;;;;;;16.00;71.30;100258.16;1647754;86;21045;-70
2021/08/14 01:59:01;;;;;;;21.45;9.80;;;;;;;15.98;71.47;100256.28;1648835;86;21552;-70
2021/08/14 02:01:31;;;;;;;16.93;8.68;;;;;;;15.95;71.92;100254.16;1673111;84;21617;-71
2021/08/14 02:03:59;;;;;;;18.42;9.05;;;;;;;15.92;72.24;100251.49;1675061;84;21552;-71
2021/08/14 02:06:26;;;;;;;24.55;9.03;;;;;;;15.93;72.39;100256.48;1665484;86;21535;-71
2021/08/14 02:08:54;;;;;;;18.30;9.93;;;;;;;15.92;72.41;100254.84;1621029;86;21597;-71
2021/08/14 02:11:34;;;;;;;19.00;9.58;;;;;;;15.93;72.40;100255.09;1642460;85;21059;-71
2021/08/14 02:14:01;;;;;;;15.05;8.58;;;;;;;15.91;72.22;100258.78;1671500;84;21430;-70
2021/08/14 02:16:33;;;;;;;20.92;8.68;;;;;;;15.90;72.15;100262.72;1665198;86;22032;-70
2021/08/14 02:19:01;;;;;;;23.52;10.55;;;;;;;15.87;72.18;100254.47;1648624;86;21452;-70
2021/08/14 02:21:28;;;;;;;19.67;10.88;;;;;;;15.85;72.21;100249.03;1626503;86;21095;-70
2021/08/14 02:23:57;;;;;;;16.70;9.75;;;;;;;15.81;72.29;100253.05;1644893;86;21202;-70
2021/08/14 02:26:25;;;;;;;17.57;9.30;;;;;;;15.77;72.53;100250.70;1639511;87;20991;-70
2021/08/14 02:28:54;;;;;;;15.00;8.43;;;;;;;15.68;72.96;100254.36;1665643;83;21052;-70
2021/08/14 02:31:23;;;;;;;15.20;8.50;;;;;;;15.66;73.30;100260.03;1632847;87;21093;-70
2021/08/14 02:33:54;;;;;;;20.40;9.13;;;;;;;15.64;73.57;100257.59;1631789;87;21508;-70
2021/08/14 02:36:22;;;;;;;20.50;9.98;;;;;;;15.65;73.36;100261.16;1667669;84;21107;-70
2021/08/14 02:38:51;;;;;;;19.40;9.65;;;;;;;15.67;73.06;100261.64;1642900;85;21055;-70
2021/08/14 02:41:20;;;;;;;19.65;10.08;;;;;;;15.67;72.85;100259.69;1679860;84;21877;-70
2021/08/14 02:43:48;;;;;;;18.62;9.43;;;;;;;15.67;72.71;100258.30;1670876;85;21074;-70
2021/08/14 02:46:17;;;;;;;17.85;9.40;;;;;;;15.65;72.71;100263.38;1642838;85;21102;-70
2021/08/14 02:48:44;;;;;;;16.48;10.38;;;;;;;15.58;73.12;100264.47;1671165;85;21016;-70
2021/08/14 02:51:12;;;;;;;14.90;10.08;;;;;;;15.47;73.54;100259.07;1651345;84;21070;-70
2021/08/14 02:53:38;;;;;;;18.15;9.65;;;;;;;15.39;73.84;100254.61;1641785;85;21516;-70
2021/08/14 02:56:08;;;;;;;17.48;10.00;;;;;;;15.38;73.87;100253.56;1671021;85;21068;-70
2021/08/14 02:58:36;;;;;;;19.17;10.40;;;;;;;15.40;73.71;100248.50;1671294;84;21054;-70
2021/08/14 03:01:07;;;;;;;13.55;9.68;;;;;;;15.41;73.58;100254.27;1674874;84;21067;-70
2021/08/14 03:03:35;;;;;;;14.43;8.43;;;;;;;15.41;73.67;100257.05;1671372;85;21135;-70
2021/08/14 03:06:01;;;;;;;17.00;10.13;;;;;;;15.39;74.06;100253.23;1677573;85;21817;-70
2021/08/14 03:08:34;;;;;;;17.48;10.78;;;;;;;15.38;74.21;100246.63;1727984;81;21025;-70
2021/08/14 03:11:01;;;;;;;18.32;9.93;;;;;;;15.38;74.31;100245.23;1670420;84;21075;-70
2021/08/14 03:13:27;;;;;;;14.70;10.00;;;;;;;15.32;74.45;100252.36;1633360;85;21528;-70
2021/08/14 03:15:56;;;;;;;16.62;10.60;;;;;;;15.35;74.52;100258.41;1679937;85;21224;-70
2021/08/14 03:18:24;;;;;;;17.77;9.80;;;;;;;15.31;74.54;100259.08;1691294;84;21566;-70
2021/08/14 03:20:52;;;;;;;16.42;10.58;;;;;;;15.30;74.82;100253.86;1721620;81;21114;-70
2021/08/14 03:23:20;;;;;;;20.85;11.03;;;;;;;15.33;74.95;100251.80;1722364;81;21005;-71
2021/08/14 03:25:51;;;;;;;22.22;10.23;;;;;;;15.39;74.69;100254.61;1722590;81;21071;-70
2021/08/14 03:28:17;;;;;;;18.05;10.45;;;;;;;15.45;74.70;100249.12;1698223;82;21024;-70
2021/08/14 03:30:43;;;;;;;22.50;10.98;;;;;;;15.51;74.41;100249.73;1725461;81;21503;-70
2021/08/14 03:33:17;;;;;;;17.77;9.68;;;;;;;15.55;74.19;100247.92;1724333;81;21056;-70
2021/08/14 03:35:51;;;;;;;20.20;11.08;;;;;;;15.57;74.23;100253.92;1655547;84;21086;-70
2021/08/14 03:38:20;;;;;;;17.12;10.53;;;;;;;15.60;74.16;100248.29;1711688;82;21040;-72
2021/08/14 03:40:49;;;;;;;18.80;11.60;;;;;;;15.65;74.01;100252.27;1703920;82;21028;-71
2021/08/14 03:43:18;;;;;;;16.77;10.40;;;;;;;15.69;73.93;100252.41;1682789;82;21779;-71
2021/08/14 03:45:48;;;;;;;16.25;10.32;;;;;;;15.73;73.96;100255.33;1699482;82;21486;-71
2021/08/14 03:48:20;;;;;;;17.27;10.35;;;;;;;15.70;74.09;100255.41;1685454;83;21576;-71
2021/08/14 03:50:46;;;;;;;15.03;10.05;;;;;;;15.70;74.48;100252.06;1680051;84;20997;-71
2021/08/14 03:53:12;;;;;;;22.95;10.88;;;;;;;15.76;74.54;100249.88;1707628;82;21160;-71
2021/08/14 03:55:40;;;;;;;20.90;10.20;;;;;;;15.83;74.22;100246.59;1699023;83;21040;-71
2021/08/14 03:58:08;;;;;;;19.85;9.90;;;;;;;15.90;73.90;100250.22;1705387;82;21033;-71
2021/08/14 04:00:35;;;;;;;18.65;10.40;;;;;;;15.93;74.01;100247.55;1704326;82;21130;-71
2021/08/14 04:03:06;;;;;;;22.40;10.25;;;;;;;15.97;74.20;100250.47;1705078;82;21076;-71
2021/08/14 04:05:32;;;;;;;17.60;10.48;;;;;;;16.02;74.29;100248.91;1701936;84;21036;-70
2021/08/14 04:07:58;;;;;;;28.25;10.72;;;;;;;16.07;74.53;100256.22;1702294;84;21015;-70
2021/08/14 04:10:26;;;;;;;21.05;10.50;;;;;;;16.13;74.63;100249.89;1687740;82;20981;-70
2021/08/14 04:12:54;;;;;;;24.25;10.28;;;;;;;16.19;74.45;100252.69;1705498;82;21076;-70
2021/08/14 04:15:21;;;;;;;19.60;9.85;;;;;;;16.27;74.44;100252.39;1703040;82;21569;-69
2021/08/14 04:17:48;;;;;;;21.33;9.88;;;;;;;16.35;74.59;100259.01;1683770;84;21478;-70
2021/08/14 04:20:18;;;;;;;15.93;9.25;;;;;;;16.42;74.71;100260.66;1681370;84;21443;-70
2021/08/14 04:22:45;;;;;;;15.00;10.00;;;;;;;16.49;74.84;100260.93;1646057;83;21166;-71
2021/08/14 04:25:11;;;;;;;19.42;11.18;;;;;;;16.57;74.87;100265.34;1679454;84;21560;-70
2021/08/14 04:27:38;;;;;;;14.90;8.88;;;;;;;16.64;74.88;100265.02;1657345;85;21028;-71
2021/08/14 04:30:08;;;;;;;14.98;9.70;;;;;;;16.70;74.83;100258.65;1657161;84;21050;-69
2021/08/14 04:32:35;;;;;;;14.75;9.83;;;;;;;16.77;74.89;100271.99;1623127;86;21621;-70
2021/08/14 04:35:08;;;;;;;18.87;10.45;;;;;;;16.85;74.81;100271.11;1654437;84;21020;-70
2021/08/14 04:37:36;;;;;;;20.45;10.03;;;;;;;16.94;74.64;100270.98;1681930;83;21043;-71
2021/08/14 04:40:11;;;;;;;18.57;9.30;;;;;;;17.03;74.70;100266.71;1679134;84;21488;-70
2021/08/14 04:42:37;;;;;;;15.60;9.40;;;;;;;17.13;74.83;100266.86;1668831;86;21026;-70
2021/08/14 04:45:08;;;;;;;9.68;7.80;;;;;;;17.23;74.84;100269.19;1670769;85;21483;-70
2021/08/14 04:47:36;;;;;;;19.10;8.70;;;;;;;17.32;74.64;100270.48;1674115;85;21515;-71
2021/08/14 04:50:06;;;;;;;13.98;8.50;;;;;;;17.40;74.26;100270.94;1684403;84;21077;-70
2021/08/14 04:52:32;;;;;;;14.50;8.90;;;;;;;17.50;74.12;100267.47;1674515;84;21539;-70
2021/08/14 04:54:59;;;;;;;13.22;8.18;;;;;;;17.60;73.80;100267.56;1684689;84;21102;-70
2021/08/14 04:57:25;;;;;;;12.58;8.75;;;;;;;17.68;73.73;100260.23;1673026;84;21746;-69
2021/08/14 04:59:55;;;;;;;13.20;8.83;;;;;;;17.78;73.61;100267.28;1673516;85;21089;-70
2021/08/14 05:02:23;;;;;;;18.82;9.33;;;;;;;17.85;73.54;100260.55;1673618;85;21046;-71
2021/08/14 05:04:51;;;;;;;17.30;8.83;;;;;;;17.95;73.53;100261.45;1682787;84;21119;-70
2021/08/14 05:07:19;;;;;;;13.18;7.62;;;;;;;18.05;73.51;100267.71;1684520;84;21105;-70
2021/08/14 05:09:45;;;;;;;15.10;8.13;;;;;;;18.13;73.38;100263.99;1678315;84;21112;-69
2021/08/14 05:12:12;;;;;;;16.85;7.15;;;;;;;18.24;73.21;100262.31;1683236;84;21027;-70
2021/08/14 05:14:38;;;;;;;14.73;6.53;;;;;;;18.35;72.55;100267.39;1684896;84;21499;-70
2021/08/14 05:17:05;;;;;;;10.88;6.58;;;;;;;18.45;71.88;100264.09;1677962;84;21555;-70
2021/08/14 05:19:33;;;;;;;10.68;6.80;;;;;;;18.56;71.43;100267.16;1682796;84;21035;-69
2021/08/14 05:22:00;;;;;;;14.78;7.28;;;;;;;18.68;70.89;100266.89;1681860;84;22334;-69
2021/08/14 05:24:26;;;;;;;11.33;5.83;;;;;;;18.78;70.69;100264.94;1615887;86;21022;-70
2021/08/14 05:26:54;;;;;;;15.88;7.30;;;;;;;18.88;70.48;100263.63;1665907;85;21117;-69
2021/08/14 05:29:22;;;;;;;21.37;8.68;;;;;;;18.96;70.28;100262.63;1688240;84;21578;-69
2021/08/14 05:31:52;;;;;;;29.20;7.58;;;;;;;19.04;70.00;100263.61;1693432;84;21022;-70
2021/08/14 05:34:18;;;;;;;19.87;7.97;;;;;;;19.09;69.29;100265.31;1686947;84;21006;-69
2021/08/14 05:36:46;;;;;;;17.30;7.58;;;;;;;19.15;68.25;100262.53;1695906;84;21110;-70
2021/08/14 05:39:13;;;;;;;18.80;6.78;;;;;;;19.26;67.94;100271.76;1681502;83;21559;-70
2021/08/14 05:41:44;;;;;;;19.62;7.58;;;;;;;19.37;68.12;100269.20;1674969;85;21111;-70
2021/08/14 05:44:12;;;;;;;13.93;7.50;;;;;;;19.45;67.86;100272.39;1673775;85;21026;-70
2021/08/14 05:46:38;;;;;;;28.17;8.38;;;;;;;19.50;66.36;100269.33;1697525;83;22173;-70
2021/08/14 05:49:06;;;;;;;20.08;8.20;;;;;;;19.58;66.34;100274.51;1659595;85;21008;-70
2021/08/14 05:51:36;;;;;;;20.02;7.50;;;;;;;19.65;65.59;100264.08;1669242;83;21595;-70
2021/08/14 05:54:04;;;;;;;21.30;8.60;;;;;;;19.73;65.81;100260.84;1644628;83;21588;-70
2021/08/14 05:56:30;;;;;;;17.48;7.30;;;;;;;19.82;64.86;100262.86;1665951;84;21044;-70
2021/08/14 05:58:57;;;;;;;27.48;8.83;;;;;;;19.89;64.11;100266.40;1659284;85;22002;-70
2021/08/14 06:01:25;;;;;;;15.20;7.47;;;;;;;19.99;63.97;100270.60;1685101;83;21040;-70
2021/08/14 06:03:51;;;;;;;25.12;8.05;;;;;;;20.06;62.80;100267.38;1677973;83;21088;-70
2021/08/14 06:06:18;;;;;;;21.20;8.35;;;;;;;20.16;62.25;100270.78;1684182;83;21557;-71
2021/08/14 06:08:44;;;;;;;20.95;7.83;;;;;;;20.25;62.53;100276.17;1680303;83;21060;-70
2021/08/14 06:11:14;;;;;;;16.15;6.87;;;;;;;20.32;61.85;100270.70;1677791;83;21036;-71
2021/08/14 06:13:41;;;;;;;21.45;7.17;;;;;;;20.42;61.89;100281.30;1679642;85;21015;-70
2021/08/14 06:16:10;;;;;;;21.20;8.08;;;;;;;20.53;61.73;100278.72;1679140;85;21098;-71
2021/08/14 06:18:41;;;;;;;20.97;6.65;;;;;;;20.62;61.04;100280.47;1670800;84;21050;-71
2021/08/14 06:21:09;;;;;;;22.80;6.53;;;;;;;20.71;60.35;100278.84;1667632;84;21566;-71
2021/08/14 06:23:35;;;;;;;14.03;6.45;;;;;;;20.80;60.19;100276.59;1668970;84;21117;-71
2021/08/14 06:26:02;;;;;;;14.03;6.10;;;;;;;20.89;60.63;100280.55;1682178;85;21030;-71
2021/08/14 06:28:28;;;;;;;12.78;6.25;;;;;;;20.98;60.21;100283.14;1697303;83;21091;-71
2021/08/14 06:30:54;;;;;;;12.53;5.87;;;;;;;21.07;60.19;100274.50;1691356;83;21047;-71
2021/08/14 06:33:20;;;;;;;23.52;6.97;;;;;;;21.15;59.84;100275.63;1646757;85;21044;-71
2021/08/14 06:35:48;;;;;;;12.15;5.55;;;;;;;21.21;59.37;100278.92;1675339;85;21492;-70
2021/08/14 06:38:15;;;;;;;13.62;6.47;;;;;;;21.30;58.00;100282.06;1676988;84;21063;-71
2021/08/14 06:40:42;;;;;;;23.38;6.62;;;;;;;21.36;57.99;100283.38;1685283;85;21563;-71
2021/08/14 06:43:11;;;;;;;17.35;6.53;;;;;;;21.41;58.12;100284.43;1651917;85;21048;-71
2021/08/14 06:45:37;;;;;;;32.73;7.47;;;;;;;21.47;57.26;100278.74;1683811;83;21110;-71
2021/08/14 06:48:04;;;;;;;13.18;6.22;;;;;;;21.53;57.37;100280.02;1658391;84;21417;-67
2021/08/14 06:50:35;;;;;;;16.73;6.45;;;;;;;21.60;57.77;100275.12;1684700;84;21004;-69
2021/08/14 06:53:04;;;;;;;13.50;6.12;;;;;;;21.68;58.19;100280.25;1684685;85;21071;-69
2021/08/14 06:55:43;;;;;;;13.85;6.47;;;;;;;21.76;58.80;100276.36;1683615;83;21126;-73
2021/08/14 06:58:10;;;;;;;15.25;5.80;;;;;;;21.86;57.92;100282.52;1685902;83;21072;-68
2021/08/14 07:00:36;;;;;;;13.32;5.78;;;;;;;21.94;57.45;100279.23;1685666;83;21149;-67
2021/08/14 07:03:08;;;;;;;13.85;6.17;;;;;;;22.02;57.33;100280.94;1703286;83;21595;-68
2021/08/14 07:05:41;;;;;;;13.70;5.92;;;;;;;22.08;56.59;100276.59;1689779;84;21026;-71
2021/08/14 07:08:10;;;;;;;13.48;6.03;;;;;;;22.17;56.28;100272.69;1706255;83;21085;-71
2021/08/14 07:10:38;;;;;;;22.00;5.75;;;;;;;22.28;57.07;100268.01;1675956;84;21547;-71
2021/08/14 07:13:04;;;;;;;15.53;4.33;;;;;;;22.38;55.73;100266.54;1662480;84;21677;-71
2021/08/14 07:15:34;;;;;;;15.60;5.03;;;;;;;22.44;54.30;100269.20;1707911;82;21083;-71
2021/08/14 07:18:09;;;;;;;11.78;4.12;;;;;;;22.49;52.79;100270.27;1706922;84;21046;-71
2021/08/14 07:20:38;;;;;;;7.37;4.30;;;;;;;22.57;52.89;100269.73;1714732;83;21506;-71
2021/08/14 07:23:06;;;;;;;14.25;3.77;;;;;;;22.67;52.64;100266.06;1698634;83;21579;-71
2021/08/14 07:25:33;;;;;;;11.22;5.25;;;;;;;22.76;52.34;100265.14;1710841;83;21799;-71
2021/08/14 07:27:59;;;;;;;8.58;4.50;;;;;;;22.84;51.25;100259.02;1720989;83;21036;-71
2021/08/14 07:30:27;;;;;;;10.05;4.17;;;;;;;22.88;49.82;100257.02;1707183;83;21050;-70
2021/08/14 07:32:54;;;;;;;11.53;4.72;;;;;;;22.94;49.74;100261.70;1711833;83;21068;-72
2021/08/14 07:35:26;;;;;;;10.23;4.83;;;;;;;22.98;49.47;100254.91;1680639;85;21024;-70
2021/08/14 07:37:54;;;;;;;16.70;4.45;;;;;;;23.05;49.32;100255.56;1684964;85;21043;-71
2021/08/14 07:40:23;;;;;;;10.75;4.08;;;;;;;23.12;48.94;100256.81;1682119;83;21001;-71
2021/08/14 07:42:51;;;;;;;13.70;4.55;;;;;;;23.20;48.95;100248.05;1669282;84;21073;-70
2021/08/14 07:45:20;;;;;;;7.47;4.17;;;;;;;23.34;48.75;100252.17;1703996;83;21038;-71
2021/08/14 07:47:48;;;;;;;4.83;3.70;;;;;;;23.43;49.13;100246.23;1704571;83;21075;-71
2021/08/14 07:50:26;;;;;;;8.23;3.90;;;;;;;23.49;48.50;100237.63;1706804;83;21091;-70
2021/08/14 07:52:54;;;;;;;8.18;4.00;;;;;;;23.57;47.79;100238.50;1705978;83;21031;-71
2021/08/14 07:55:21;;;;;;;6.20;4.05;;;;;;;23.66;48.28;100236.75;1696622;83;21015;-70
2021/08/14 07:57:47;;;;;;;9.98;3.50;;;;;;;23.74;47.35;100238.40;1705555;83;21544;-70
2021/08/14 08:00:17;;;;;;;5.15;3.52;;;;;;;23.75;47.55;100237.81;1677657;83;21059;-71
2021/08/14 08:02:49;;;;;;;6.33;3.72;;;;;;;23.79;46.40;100232.40;1675103;83;21219;-70
2021/08/14 08:05:15;;;;;;;5.47;3.80;;;;;;;23.88;46.44;100234.86;1661026;84;21106;-71
2021/08/14 08:07:44;;;;;;;5.75;3.40;;;;;;;23.95;45.13;100234.86;1698418;83;21028;-72
2021/08/14 08:10:15;;;;;;;5.55;3.42;;;;;;;23.99;46.74;100234.89;1705981;83;21034;-71
2021/08/14 08:12:44;;;;;;;4.62;2.92;;;;;;;24.10;45.95;100238.34;1672703;83;21610;-72
2021/08/14 08:15:14;;;;;;;7.62;3.60;;;;;;;24.14;45.11;100231.52;1691288;83;21046;-72
2021/08/14 08:17:41;;;;;;;4.20;3.05;;;;;;;24.21;46.36;100234.20;1690056;84;21070;-72
2021/08/14 08:20:10;;;;;;;4.97;3.30;;;;;;;24.30;46.62;100230.39;1667751;83;21587;-72
2021/08/14 08:22:36;;;;;;;8.28;3.75;;;;;;;24.43;46.40;100228.00;1710912;82;21037;-69
2021/08/14 08:25:05;;;;;;;9.33;3.02;;;;;;;24.52;46.04;100231.25;1710570;83;21028;-70
2021/08/14 08:27:43;;;;;;;6.62;3.40;;;;;;;24.57;44.57;100227.86;1706179;83;21056;-70
2021/08/14 08:30:10;;;;;;;6.08;3.37;;;;;;;24.60;43.24;100227.05;1702255;83;21077;-71
2021/08/14 08:32:38;;;;;;;7.33;3.50;;;;;;;24.65;42.85;100228.06;1691289;83;21095;-71
2021/08/14 08:35:11;;;;;;;5.30;3.10;;;;;;;24.74;42.37;100224.83;1695409;83;21026;-71
2021/08/14 08:37:39;;;;;;;9.50;3.58;;;;;;;24.80;42.52;100225.44;1699276;83;21091;-71
2021/08/14 08:40:09;;;;;;;4.85;3.00;;;;;;;24.82;43.40;100225.06;1680504;83;22050;-70
2021/08/14 08:42:36;;;;;;;5.95;3.40;;;;;;;24.86;42.16;100222.22;1654524;84;21043;-71
2021/08/14 08:45:06;;;;;;;4.40;2.80;;;;;;;24.94;41.87;100218.84;1676411;84;21054;-71
2021/08/14 08:47:45;;;;;;;6.25;2.72;;;;;;;24.97;40.41;100218.85;1681659;82;20999;-71
2021/08/14 08:50:16;;;;;;;5.45;3.37;;;;;;;24.86;40.37;100213.17;1685585;84;21098;-71
2021/08/14 08:52:43;;;;;;;5.85;3.08;;;;;;;24.80;40.39;100207.13;1684348;84;21094;-70
2021/08/14 08:55:13;;;;;;;14.45;3.42;;;;;;;24.87;41.48;100206.94;1684225;83;21072;-71
2021/08/14 08:57:40;;;;;;;4.30;3.12;;;;;;;24.96;42.93;100210.17;1671873;84;21003;-71
2021/08/14 09:00:14;;;;;;;6.08;2.87;;;;;;;25.00;42.78;100211.00;1681486;84;20999;-71
2021/08/14 09:02:40;;;;;;;10.88;3.25;;;;;;;25.08;42.08;100208.18;1682049;84;21492;-71
2021/08/14 09:05:15;;;;;;;7.53;3.00;;;;;;;25.05;41.31;100208.37;1680591;84;21099;-70
2021/08/14 09:07:45;;;;;;;6.45;2.95;;;;;;;25.07;41.32;100201.73;1665673;84;21063;-71
2021/08/14 09:10:17;;;;;;;4.50;2.85;;;;;;;25.09;41.67;100206.95;1682344;84;21095;-71
2021/08/14 09:12:44;;;;;;;8.90;2.95;;;;;;;25.13;42.95;100204.95;1645287;85;21079;-72
2021/08/14 09:15:27;;;;;;;6.30;3.85;;;;;;;25.23;42.72;100202.70;1668639;85;21480;-71
2021/08/14 09:18:08;;;;;;;11.75;3.33;;;;;;;25.36;41.54;100196.05;1658980;85;21131;-73
2021/08/14 09:20:51;;;;;;;4.60;2.58;;;;;;;25.50;40.46;100199.41;1667446;84;21090;-72
2021/08/14 09:23:18;;;;;;;6.17;2.77;;;;;;;25.64;42.11;100202.05;1662470;85;21027;-70
2021/08/14 09:25:58;;;;;;;5.30;3.02;;;;;;;25.77;42.37;100203.80;1667259;86;21530;-72
2021/08/14 09:28:32;;;;;;;6.03;3.42;;;;;;;25.89;41.51;100199.73;1668206;86;21519;-71
2021/08/14 09:31:03;;;;;;;5.78;2.80;;;;;;;26.00;39.86;100194.83;1679325;84;21070;-72
2021/08/14 09:33:37;;;;;;;8.58;2.80;;;;;;;26.03;38.89;100194.62;1669832;84;21608;-72
2021/08/14 09:36:08;;;;;;;9.60;2.77;;;;;;;26.10;40.00;100195.20;1677470;84;21043;-73
2021/08/14 09:38:43;;;;;;;3.62;2.58;;;;;;;26.19;40.36;100192.71;1656168;85;21044;-72
2021/08/14 09:41:17;;;;;;;6.72;2.70;;;;;;;26.29;40.80;100191.03;1696517;83;21045;-72
2021/08/14 09:43:52;;;;;;;6.72;2.70;;;;;;;26.37;40.23;100182.73;1680118;85;21079;-73
2021/08/14 09:46:20;;;;;;;4.55;2.98;;;;;;;26.45;39.94;100180.68;1684762;85;21047;-72
2021/08/14 09:48:55;;;;;;;5.60;2.87;;;;;;;26.49;40.90;100181.44;1704343;83;21038;-71
2021/08/14 09:51:30;;;;;;;5.58;2.75;;;;;;;26.54;38.83;100180.22;1645527;85;21070;-72
2021/08/14 09:54:00;;;;;;;5.80;2.95;;;;;;;26.57;38.27;100170.09;1690630;84;21098;-72
2021/08/14 09:56:32;;;;;;;3.35;2.60;;;;;;;26.62;37.33;100166.83;1685633;85;21768;-72
2021/08/14 09:58:56;;;;;;;10.10;3.20;;;;;;;26.65;37.72;100168.04;1677029;83;21181;-71
2021/08/14 10:01:25;;;;;;;5.72;2.65;;;;;;;26.62;38.27;100168.24;1673001;85;21072;-72
2021/08/14 10:03:51;;;;;;;3.70;2.50;;;;;;;26.55;39.22;100165.47;1685410;85;21013;-71
2021/08/14 10:06:19;;;;;;;5.70;3.10;;;;;;;26.59;39.99;100167.06;1685374;85;21083;-71
2021/08/14 10:08:51;;;;;;;6.35;2.87;;;;;;;26.67;39.16;100159.33;1685542;85;21513;-71
2021/08/14 10:11:22;;;;;;;5.80;3.12;;;;;;;26.71;38.36;100158.70;1680730;85;21013;-71
2021/08/14 10:13:50;;;;;;;6.53;3.02;;;;;;;26.70;38.17;100154.25;1705174;83;20998;-71
2021/08/14 10:16:18;;;;;;;11.12;3.02;;;;;;;26.77;37.69;100158.25;1676756;84;21028;-72
2021/08/14 10:18:48;;;;;;;4.58;2.75;;;;;;;26.80;37.99;100151.76;1708410;83;21063;-71
2021/08/14 10:21:16;;;;;;;6.62;2.72;;;;;;;26.80;37.56;100146.11;1706515;84;21030;-71
2021/08/14 10:23:44;;;;;;;11.83;3.08;;;;;;;26.84;37.82;100153.92;1695447;82;21075;-71
2021/08/14 10:26:24;;;;;;;4.28;2.72;;;;;;;26.96;38.78;100149.17;1682314;84;21088;-71
2021/08/14 10:28:52;;;;;;;6.58;2.70;;;;;;;26.93;37.68;100144.97;1660448;85;21043;-72
2021/08/14 10:31:36;;;;;;;8.55;3.35;;;;;;;26.87;38.67;100140.37;1659863;84;21021;-71
2021/08/14 10:34:18;;;;;;;6.05;1.92;;;;;;;26.97;39.10;100138.68;1687599;83;21068;-71
2021/08/14 10:36:46;;;;;;;13.83;3.15;;;;;;;27.14;37.61;100132.68;1685359;85;21035;-71
2021/08/14 10:39:27;;;;;;;9.90;3.15;;;;;;;27.28;36.45;100125.27;1685182;84;21118;-71
2021/08/14 10:41:58;;;;;;;4.92;2.77;;;;;;;27.30;37.09;100134.91;1683370;83;21071;-70
2021/08/14 10:44:40;;;;;;;6.65;2.92;;;;;;;27.35;36.75;100129.40;1693398;83;21011;-70
2021/08/14 10:47:40;;;;;;;4.70;2.70;;;;;;;27.32;36.46;100123.98;1684969;83;23843;-72
2021/08/14 10:50:07;;;;;;;8.65;3.12;;;;;;;27.27;37.22;100125.05;1675089;83;21581;-71
2021/08/14 10:52:37;;;;;;;4.60;2.80;;;;;;;27.35;37.52;100122.33;1677646;84;21027;-71
2021/08/14 10:55:11;;;;;;;3.95;2.98;;;;;;;27.47;37.76;100120.97;1660177;84;21094;-71
2021/08/14 10:57:45;;;;;;;4.78;2.83;;;;;;;27.59;37.50;100123.86;1688427;84;21755;-71
2021/08/14 11:00:18;;;;;;;5.72;2.85;;;;;;;27.48;36.32;100118.95;1688816;84;21129;-71
2021/08/14 11:03:08;;;;;;;9.75;2.80;;;;;;;27.39;38.24;100120.27;1693754;83;21085;-71
2021/08/14 11:05:36;;;;;;;4.58;2.33;;;;;;;27.42;36.90;100120.84;1703816;83;21078;-71
2021/08/14 11:08:28;;;;;;;3.65;2.40;;;;;;;27.39;37.77;100121.69;1689000;84;21097;-71
2021/08/14 11:10:56;;;;;;;4.00;2.58;;;;;;;27.39;35.57;100115.22;1684605;84;21556;-70
2021/08/14 11:13:39;;;;;;;6.85;2.42;;;;;;;27.31;37.83;100113.10;1681871;85;21079;-70
2021/08/14 11:16:06;;;;;;;3.50;2.80;;;;;;;27.40;37.58;100114.80;1686272;83;21532;-71
2021/08/14 11:18:56;;;;;;;14.90;3.67;;;;;;;27.53;38.05;100107.98;1683201;83;21513;-70
2021/08/14 11:21:45;;;;;;;3.52;2.40;;;;;;;27.69;36.92;100110.82;1703577;83;21097;-71
2021/08/14 11:24:35;;;;;;;6.17;2.22;;;;;;;27.81;36.76;100109.45;1700247;83;21051;-71
2021/08/14 11:27:28;;;;;;;5.03;2.37;;;;;;;27.90;37.72;100101.84;1667686;84;21047;-71